sensor_id;sensor_type;location;lat;lon;timestamp;temperature;humidity
6581;DHT22;3324;50.796;7.228;2023-06-22T05:23:14;20.90;99.90
6581;DHT22;3324;50.796;7.228;2023-06-22T05:25:40;20.90;99.90
6581;DHT22;3324;50.796;7.228;2023-06-22T05:28:05;20.90;99.90
6581;DHT22;3324;50.796;7.228;2023-06-22T05:30:31;21.00;99.90
6581;DHT22;3324;50.796;7.228;2023-06-22T05:32:56;21.20;99.90
6581;DHT22;3324;50.796;7.228;2023-06-22T05:35:22;21.30;99.90
6581;DHT22;3324;50.796;7.228;2023-06-22T05:37:47;21.40;99.90
6581;DHT22;3324;50.796;7.228;2023-06-22T05:40:13;21.50;99.90
6581;DHT22;3324;50.796;7.228;2023-06-22T05:42:39;21.60;99.90
6581;DHT22;3324;50.796;7.228;2023-06-22T05:45:05;21.80;99.90
6581;DHT22;3324;50.796;7.228;2023-06-22T05:47:30;21.90;99.90
6581;DHT22;3324;50.796;7.228;2023-06-22T05:49:56;22.10;99.90
6581;DHT22;3324;50.796;7.228;2023-06-22T05:52:21;22.20;99.90
6581;DHT22;3324;50.796;7.228;2023-06-22T05:54:47;22.30;99.90
6581;DHT22;3324;50.796;7.228;2023-06-22T05:57:13;22.40;99.90
6581;DHT22;3324;50.796;7.228;2023-06-22T05:59:38;22.40;99.90
6581;DHT22;3324;50.796;7.228;2023-06-22T06:02:04;22.50;99.90
6581;DHT22;3324;50.796;7.228;2023-06-22T06:04:30;22.60;99.90
6581;DHT22;3324;50.796;7.228;2023-06-22T06:06:55;22.60;99.90
6581;DHT22;3324;50.796;7.228;2023-06-22T06:09:21;22.60;99.90
6581;DHT22;3324;50.796;7.228;2023-06-22T06:11:47;22.60;99.90
6581;DHT22;3324;50.796;7.228;2023-06-22T06:14:12;22.50;99.90
6581;DHT22;3324;50.796;7.228;2023-06-22T06:16:38;22.50;99.90
6581;DHT22;3324;50.796;7.228;2023-06-22T06:19:03;22.40;99.90
6581;DHT22;3324;50.796;7.228;2023-06-22T06:21:29;22.40;99.90
6581;DHT22;3324;50.796;7.228;2023-06-22T06:23:54;22.40;99.90
6581;DHT22;3324;50.796;7.228;2023-06-22T06:26:20;22.40;99.90
6581;DHT22;3324;50.796;7.228;2023-06-22T06:28:54;22.40;99.90
6581;DHT22;3324;50.796;7.228;2023-06-22T06:31:20;22.40;99.90
6581;DHT22;3324;50.796;7.228;2023-06-22T06:33:46;22.50;99.90
6581;DHT22;3324;50.796;7.228;2023-06-22T06:36:11;22.40;99.90
6581;DHT22;3324;50.796;7.228;2023-06-22T06:38:37;22.50;99.90
6581;DHT22;3324;50.796;7.228;2023-06-22T06:44:24;22.70;99.90
6581;DHT22;3324;50.796;7.228;2023-06-22T06:46:49;22.60;99.90
6581;DHT22;3324;50.796;7.228;2023-06-22T06:49:15;22.50;99.90
6581;DHT22;3324;50.796;7.228;2023-06-22T06:51:41;22.50;99.90
6581;DHT22;3324;50.796;7.228;2023-06-22T06:54:06;22.60;99.90
6581;DHT22;3324;50.796;7.228;2023-06-22T06:56:32;22.70;99.90
6581;DHT22;3324;50.796;7.228;2023-06-22T06:58:58;22.80;99.90
6581;DHT22;3324;50.796;7.228;2023-06-22T07:01:24;23.00;99.90
6581;DHT22;3324;50.796;7.228;2023-06-22T07:03:49;23.30;99.90
6581;DHT22;3324;50.796;7.228;2023-06-22T07:06:15;23.50;99.90
6581;DHT22;3324;50.796;7.228;2023-06-22T07:08:42;23.70;99.90
6581;DHT22;3324;50.796;7.228;2023-06-22T07:11:08;23.70;99.90
6581;DHT22;3324;50.796;7.228;2023-06-22T07:13:33;23.80;99.90
6581;DHT22;3324;50.796;7.228;2023-06-22T07:15:59;23.70;99.90
6581;DHT22;3324;50.796;7.228;2023-06-22T07:18:25;23.70;99.90
6581;DHT22;3324;50.796;7.228;2023-06-22T07:20:51;23.70;99.90
6581;DHT22;3324;50.796;7.228;2023-06-22T07:23:17;23.60;99.90
6581;DHT22;3324;50.796;7.228;2023-06-22T07:25:43;23.60;99.90
6581;DHT22;3324;50.796;7.228;2023-06-22T07:28:09;23.50;99.90
6581;DHT22;3324;50.796;7.228;2023-06-22T07:30:35;23.50;99.90
6581;DHT22;3324;50.796;7.228;2023-06-22T07:33:01;23.50;99.90
6581;DHT22;3324;50.796;7.228;2023-06-22T07:35:33;23.60;99.90
6581;DHT22;3324;50.796;7.228;2023-06-22T07:37:59;23.70;99.90
6581;DHT22;3324;50.796;7.228;2023-06-22T07:40:25;23.80;99.90
6581;DHT22;3324;50.796;7.228;2023-06-22T07:42:51;23.80;99.90
6581;DHT22;3324;50.796;7.228;2023-06-22T07:45:18;23.90;99.90
6581;DHT22;3324;50.796;7.228;2023-06-22T07:47:43;24.00;99.90
6581;DHT22;3324;50.796;7.228;2023-06-22T07:50:09;24.10;99.90
6581;DHT22;3324;50.796;7.228;2023-06-22T07:52:35;24.10;99.90
6581;DHT22;3324;50.796;7.228;2023-06-22T07:55:00;24.10;99.90
6581;DHT22;3324;50.796;7.228;2023-06-22T07:57:27;24.30;99.90
6581;DHT22;3324;50.796;7.228;2023-06-22T08:00:02;24.50;99.90
6581;DHT22;3324;50.796;7.228;2023-06-22T08:02:39;24.70;99.90
6581;DHT22;3324;50.796;7.228;2023-06-22T08:05:05;24.80;99.90
6581;DHT22;3324;50.796;7.228;2023-06-22T08:07:32;24.80;99.90
6581;DHT22;3324;50.796;7.228;2023-06-22T08:09:58;24.90;99.90
6581;DHT22;3324;50.796;7.228;2023-06-22T08:12:24;24.90;99.90
6581;DHT22;3324;50.796;7.228;2023-06-22T08:14:49;24.90;99.90
6581;DHT22;3324;50.796;7.228;2023-06-22T08:17:17;25.10;99.90
6581;DHT22;3324;50.796;7.228;2023-06-22T08:19:43;25.30;99.90
6581;DHT22;3324;50.796;7.228;2023-06-22T08:22:08;25.50;99.90
6581;DHT22;3324;50.796;7.228;2023-06-22T08:24:34;25.70;99.90
6581;DHT22;3324;50.796;7.228;2023-06-22T08:26:59;25.80;99.90
6581;DHT22;3324;50.796;7.228;2023-06-22T08:29:25;26.00;99.90
6581;DHT22;3324;50.796;7.228;2023-06-22T08:31:50;26.10;99.90
6581;DHT22;3324;50.796;7.228;2023-06-22T08:34:16;26.20;99.90
6581;DHT22;3324;50.796;7.228;2023-06-22T08:36:48;26.40;99.90
6581;DHT22;3324;50.796;7.228;2023-06-22T08:39:21;26.50;99.90
6581;DHT22;3324;50.796;7.228;2023-06-22T08:41:47;26.50;99.90
6581;DHT22;3324;50.796;7.228;2023-06-22T08:44:13;26.50;99.90
6581;DHT22;3324;50.796;7.228;2023-06-22T08:46:39;26.70;99.90
6581;DHT22;3324;50.796;7.228;2023-06-22T08:49:06;26.80;99.90
6581;DHT22;3324;50.796;7.228;2023-06-22T08:51:32;26.90;99.90
6581;DHT22;3324;50.796;7.228;2023-06-22T08:53:57;27.00;99.90
6581;DHT22;3324;50.796;7.228;2023-06-22T08:56:23;27.10;99.90
6581;DHT22;3324;50.796;7.228;2023-06-22T08:58:49;27.10;99.90
6581;DHT22;3324;50.796;7.228;2023-06-22T09:01:14;27.00;99.90
6581;DHT22;3324;50.796;7.228;2023-06-22T09:03:41;27.00;99.90
6581;DHT22;3324;50.796;7.228;2023-06-22T09:06:07;27.00;99.90
6581;DHT22;3324;50.796;7.228;2023-06-22T09:08:35;26.90;99.90
6581;DHT22;3324;50.796;7.228;2023-06-22T09:11:01;26.90;99.90
6581;DHT22;3324;50.796;7.228;2023-06-22T09:13:29;26.90;99.90
6581;DHT22;3324;50.796;7.228;2023-06-22T09:15:55;26.90;99.90
6581;DHT22;3324;50.796;7.228;2023-06-22T09:18:21;26.80;99.90
6581;DHT22;3324;50.796;7.228;2023-06-22T09:20:47;26.80;99.90
6581;DHT22;3324;50.796;7.228;2023-06-22T09:23:13;26.80;99.90
6581;DHT22;3324;50.796;7.228;2023-06-22T09:25:38;26.80;99.90
6581;DHT22;3324;50.796;7.228;2023-06-22T09:28:05;26.90;99.90
6581;DHT22;3324;50.796;7.228;2023-06-22T09:30:31;27.00;99.90
6581;DHT22;3324;50.796;7.228;2023-06-22T09:32:56;27.00;99.90
6581;DHT22;3324;50.796;7.228;2023-06-22T09:35:22;27.10;99.90
6581;DHT22;3324;50.796;7.228;2023-06-22T09:37:47;27.20;99.90
6581;DHT22;3324;50.796;7.228;2023-06-22T09:40:13;27.30;99.90
6581;DHT22;3324;50.796;7.228;2023-06-22T09:42:42;27.30;99.90
6581;DHT22;3324;50.796;7.228;2023-06-22T09:45:08;27.30;99.90
6581;DHT22;3324;50.796;7.228;2023-06-22T09:47:34;27.40;99.90
6581;DHT22;3324;50.796;7.228;2023-06-22T09:49:59;27.40;99.90
6581;DHT22;3324;50.796;7.228;2023-06-22T09:52:25;27.40;99.90
6581;DHT22;3324;50.796;7.228;2023-06-22T09:54:51;27.30;99.90
6581;DHT22;3324;50.796;7.228;2023-06-22T09:57:16;27.30;99.90
6581;DHT22;3324;50.796;7.228;2023-06-22T09:59:42;27.30;99.90
6581;DHT22;3324;50.796;7.228;2023-06-22T10:02:08;27.20;99.90
6581;DHT22;3324;50.796;7.228;2023-06-22T10:04:34;27.00;99.90
6581;DHT22;3324;50.796;7.228;2023-06-22T10:07:00;26.80;99.90
6581;DHT22;3324;50.796;7.228;2023-06-22T10:09:26;26.70;99.90
6581;DHT22;3324;50.796;7.228;2023-06-22T10:11:52;26.70;99.90
6581;DHT22;3324;50.796;7.228;2023-06-22T10:14:17;26.50;99.90
6581;DHT22;3324;50.796;7.228;2023-06-22T10:16:43;26.40;99.90
6581;DHT22;3324;50.796;7.228;2023-06-22T10:19:09;26.40;99.90
6581;DHT22;3324;50.796;7.228;2023-06-22T10:21:34;26.30;99.90
6581;DHT22;3324;50.796;7.228;2023-06-22T10:24:00;26.20;99.90
6581;DHT22;3324;50.796;7.228;2023-06-22T10:26:34;26.20;99.90
6581;DHT22;3324;50.796;7.228;2023-06-22T10:29:04;26.10;99.90
6581;DHT22;3324;50.796;7.228;2023-06-22T10:31:29;26.10;99.90
6581;DHT22;3324;50.796;7.228;2023-06-22T10:33:55;25.90;99.90
6581;DHT22;3324;50.796;7.228;2023-06-22T10:36:22;25.90;99.90
6581;DHT22;3324;50.796;7.228;2023-06-22T10:38:48;25.80;99.90
6581;DHT22;3324;50.796;7.228;2023-06-22T10:41:14;25.70;99.90
6581;DHT22;3324;50.796;7.228;2023-06-22T10:43:40;25.50;99.90
6581;DHT22;3324;50.796;7.228;2023-06-22T10:46:06;25.30;99.90
6581;DHT22;3324;50.796;7.228;2023-06-22T10:48:32;25.10;99.90
6581;DHT22;3324;50.796;7.228;2023-06-22T10:50:57;25.00;99.90
6581;DHT22;3324;50.796;7.228;2023-06-22T10:53:23;24.90;99.90
6581;DHT22;3324;50.796;7.228;2023-06-22T10:55:49;24.60;99.90
6581;DHT22;3324;50.796;7.228;2023-06-22T10:58:14;24.70;99.90
6581;DHT22;3324;50.796;7.228;2023-06-22T11:00:40;24.60;99.90
6581;DHT22;3324;50.796;7.228;2023-06-22T11:03:06;24.40;99.90
6581;DHT22;3324;50.796;7.228;2023-06-22T11:05:31;24.20;99.90
6581;DHT22;3324;50.796;7.228;2023-06-22T11:07:57;24.20;99.90
6581;DHT22;3324;50.796;7.228;2023-06-22T11:10:23;24.40;99.90
6581;DHT22;3324;50.796;7.228;2023-06-22T11:12:49;24.30;99.90
6581;DHT22;3324;50.796;7.228;2023-06-22T11:15:14;24.20;99.90
6581;DHT22;3324;50.796;7.228;2023-06-22T11:17:40;24.10;99.90
6581;DHT22;3324;50.796;7.228;2023-06-22T11:20:06;24.00;99.90
6581;DHT22;3324;50.796;7.228;2023-06-22T11:22:42;23.90;99.90
6581;DHT22;3324;50.796;7.228;2023-06-22T11:25:08;23.80;99.90
6581;DHT22;3324;50.796;7.228;2023-06-22T11:27:34;23.80;99.90
6581;DHT22;3324;50.796;7.228;2023-06-22T11:29:59;23.80;99.90
6581;DHT22;3324;50.796;7.228;2023-06-22T11:32:25;23.80;99.90
6581;DHT22;3324;50.796;7.228;2023-06-22T11:34:54;23.80;99.90
6581;DHT22;3324;50.796;7.228;2023-06-22T11:37:20;23.80;99.90
6581;DHT22;3324;50.796;7.228;2023-06-22T11:39:46;23.70;99.90
6581;DHT22;3324;50.796;7.228;2023-06-22T11:42:11;23.70;99.90
6581;DHT22;3324;50.796;7.228;2023-06-22T11:44:37;23.70;99.90
6581;DHT22;3324;50.796;7.228;2023-06-22T11:47:03;23.70;99.90
6581;DHT22;3324;50.796;7.228;2023-06-22T11:49:32;23.70;99.90
6581;DHT22;3324;50.796;7.228;2023-06-22T11:51:58;23.80;99.90
6581;DHT22;3324;50.796;7.228;2023-06-22T11:54:24;23.90;99.90
6581;DHT22;3324;50.796;7.228;2023-06-22T11:56:49;23.90;99.90
6581;DHT22;3324;50.796;7.228;2023-06-22T11:59:15;24.00;99.90
6581;DHT22;3324;50.796;7.228;2023-06-22T12:01:41;24.00;99.90
6581;DHT22;3324;50.796;7.228;2023-06-22T12:04:06;23.90;99.90
6581;DHT22;3324;50.796;7.228;2023-06-22T12:06:32;23.80;99.90
6581;DHT22;3324;50.796;7.228;2023-06-22T12:08:58;23.80;99.90
6581;DHT22;3324;50.796;7.228;2023-06-22T12:11:24;23.80;99.90
6581;DHT22;3324;50.796;7.228;2023-06-22T12:13:49;23.80;99.90
6581;DHT22;3324;50.796;7.228;2023-06-22T12:16:15;23.70;99.90
6581;DHT22;3324;50.796;7.228;2023-06-22T12:18:40;23.60;99.90
6581;DHT22;3324;50.796;7.228;2023-06-22T12:21:06;23.60;99.90
6581;DHT22;3324;50.796;7.228;2023-06-22T12:23:32;23.50;99.90
6581;DHT22;3324;50.796;7.228;2023-06-22T12:25:58;23.40;99.90
6581;DHT22;3324;50.796;7.228;2023-06-22T12:28:24;23.30;99.90
6581;DHT22;3324;50.796;7.228;2023-06-22T12:30:50;23.30;99.90
6581;DHT22;3324;50.796;7.228;2023-06-22T12:33:16;23.30;99.90
6581;DHT22;3324;50.796;7.228;2023-06-22T12:35:41;23.30;99.90
6581;DHT22;3324;50.796;7.228;2023-06-22T12:38:07;23.30;99.90
6581;DHT22;3324;50.796;7.228;2023-06-22T12:40:33;23.50;99.90
6581;DHT22;3324;50.796;7.228;2023-06-22T12:42:59;23.80;99.90
6581;DHT22;3324;50.796;7.228;2023-06-22T12:45:24;24.00;99.90
6581;DHT22;3324;50.796;7.228;2023-06-22T12:47:54;24.20;99.90
6581;DHT22;3324;50.796;7.228;2023-06-22T12:50:19;24.40;99.90
6581;DHT22;3324;50.796;7.228;2023-06-22T12:52:45;24.70;99.90
6581;DHT22;3324;50.796;7.228;2023-06-22T12:55:11;24.80;99.90
6581;DHT22;3324;50.796;7.228;2023-06-22T12:57:36;24.90;99.90
6581;DHT22;3324;50.796;7.228;2023-06-22T13:00:02;24.90;99.90
6581;DHT22;3324;50.796;7.228;2023-06-22T13:02:30;25.00;99.90
6581;DHT22;3324;50.796;7.228;2023-06-22T13:04:55;25.10;99.90
6581;DHT22;3324;50.796;7.228;2023-06-22T13:07:21;25.20;99.90
6581;DHT22;3324;50.796;7.228;2023-06-22T13:09:46;25.10;99.90
6581;DHT22;3324;50.796;7.228;2023-06-22T13:12:12;25.10;99.90
6581;DHT22;3324;50.796;7.228;2023-06-22T13:14:37;25.00;99.90
6581;DHT22;3324;50.796;7.228;2023-06-22T13:17:03;25.10;99.90
6581;DHT22;3324;50.796;7.228;2023-06-22T13:19:28;25.30;99.90
6581;DHT22;3324;50.796;7.228;2023-06-22T13:21:58;25.50;99.90
6581;DHT22;3324;50.796;7.228;2023-06-22T13:24:23;25.60;99.90
6581;DHT22;3324;50.796;7.228;2023-06-22T13:26:49;25.60;99.90
6581;DHT22;3324;50.796;7.228;2023-06-22T13:29:14;25.80;99.90
6581;DHT22;3324;50.796;7.228;2023-06-22T13:31:40;25.90;99.90
6581;DHT22;3324;50.796;7.228;2023-06-22T13:34:05;25.80;99.90
6581;DHT22;3324;50.796;7.228;2023-06-22T13:36:31;25.90;99.90
6581;DHT22;3324;50.796;7.228;2023-06-22T13:38:57;26.00;99.90
6581;DHT22;3324;50.796;7.228;2023-06-22T13:41:22;26.10;99.90
6581;DHT22;3324;50.796;7.228;2023-06-22T13:43:48;26.00;99.90
6581;DHT22;3324;50.796;7.228;2023-06-22T13:46:13;26.00;99.90
6581;DHT22;3324;50.796;7.228;2023-06-22T13:48:39;26.00;99.90
6581;DHT22;3324;50.796;7.228;2023-06-22T13:54:26;26.00;99.90
6581;DHT22;3324;50.796;7.228;2023-06-22T13:56:52;26.20;99.90
6581;DHT22;3324;50.796;7.228;2023-06-22T13:59:18;26.20;99.90
6581;DHT22;3324;50.796;7.228;2023-06-22T14:01:43;26.20;99.90
6581;DHT22;3324;50.796;7.228;2023-06-22T14:04:09;26.20;99.90
6581;DHT22;3324;50.796;7.228;2023-06-22T14:06:35;26.30;99.90
6581;DHT22;3324;50.796;7.228;2023-06-22T14:09:01;26.20;99.90
6581;DHT22;3324;50.796;7.228;2023-06-22T14:11:26;26.10;99.90
6581;DHT22;3324;50.796;7.228;2023-06-22T14:13:52;26.00;99.90
6581;DHT22;3324;50.796;7.228;2023-06-22T14:16:17;25.90;99.90
6581;DHT22;3324;50.796;7.228;2023-06-22T14:18:45;25.80;99.90
6581;DHT22;3324;50.796;7.228;2023-06-22T14:21:10;25.70;99.90
6581;DHT22;3324;50.796;7.228;2023-06-22T14:23:36;25.70;99.90
6581;DHT22;3324;50.796;7.228;2023-06-22T14:26:03;25.50;99.90
6581;DHT22;3324;50.796;7.228;2023-06-22T14:28:28;25.40;99.90
6581;DHT22;3324;50.796;7.228;2023-06-22T18:44:40;22.70;99.90
6581;DHT22;3324;50.796;7.228;2023-06-22T18:47:09;22.70;99.90
6581;DHT22;3324;50.796;7.228;2023-06-22T18:52:06;22.80;99.90
6581;DHT22;3324;50.796;7.228;2023-06-22T18:54:43;22.70;99.90
6581;DHT22;3324;50.796;7.228;2023-06-22T18:57:17;22.80;99.90
6581;DHT22;3324;50.796;7.228;2023-06-22T19:02:15;22.80;99.90
6581;DHT22;3324;50.796;7.228;2023-06-22T19:04:43;22.80;99.90
6581;DHT22;3324;50.796;7.228;2023-06-22T19:07:09;22.80;99.90
6581;DHT22;3324;50.796;7.228;2023-06-22T19:09:37;22.70;99.90
6581;DHT22;3324;50.796;7.228;2023-06-22T19:12:22;22.60;99.90
6581;DHT22;3324;50.796;7.228;2023-06-22T19:15:09;22.50;99.90
6581;DHT22;3324;50.796;7.228;2023-06-22T19:17:42;22.40;99.90
6581;DHT22;3324;50.796;7.228;2023-06-22T19:20:10;22.30;99.90
6581;DHT22;3324;50.796;7.228;2023-06-22T19:22:47;22.30;99.90
6581;DHT22;3324;50.796;7.228;2023-06-22T19:25:21;22.20;99.90
6581;DHT22;3324;50.796;7.228;2023-06-22T19:27:47;22.10;99.90
6581;DHT22;3324;50.796;7.228;2023-06-22T19:30:14;22.00;99.90
6581;DHT22;3324;50.796;7.228;2023-06-22T19:32:42;21.90;99.90
6581;DHT22;3324;50.796;7.228;2023-06-22T19:35:08;21.90;99.90
6581;DHT22;3324;50.796;7.228;2023-06-22T19:37:35;21.80;99.90
6581;DHT22;3324;50.796;7.228;2023-06-22T19:40:01;21.70;99.90
6581;DHT22;3324;50.796;7.228;2023-06-22T19:42:26;21.70;99.90
6581;DHT22;3324;50.796;7.228;2023-06-22T19:44:52;21.60;99.90
6581;DHT22;3324;50.796;7.228;2023-06-22T19:47:19;21.50;99.90
6581;DHT22;3324;50.796;7.228;2023-06-22T19:49:45;21.40;99.90
6581;DHT22;3324;50.796;7.228;2023-06-22T19:52:11;21.30;99.90
6581;DHT22;3324;50.796;7.228;2023-06-22T19:54:39;21.20;99.90
6581;DHT22;3324;50.796;7.228;2023-06-22T19:57:06;21.10;99.90
6581;DHT22;3324;50.796;7.228;2023-06-22T19:59:31;21.00;99.90
6581;DHT22;3324;50.796;7.228;2023-06-22T20:01:57;20.90;99.90
6581;DHT22;3324;50.796;7.228;2023-06-22T20:04:24;20.90;99.90
6581;DHT22;3324;50.796;7.228;2023-06-22T20:07:06;20.90;99.90
6581;DHT22;3324;50.796;7.228;2023-06-22T20:09:32;20.70;99.90
6581;DHT22;3324;50.796;7.228;2023-06-22T20:11:59;20.70;99.90
6581;DHT22;3324;50.796;7.228;2023-06-22T20:14:33;20.70;99.90
6581;DHT22;3324;50.796;7.228;2023-06-22T20:16:58;20.60;99.90
6581;DHT22;3324;50.796;7.228;2023-06-22T20:19:37;20.50;99.90
6581;DHT22;3324;50.796;7.228;2023-06-22T20:22:06;20.50;99.90
6581;DHT22;3324;50.796;7.228;2023-06-22T20:24:33;20.40;99.90
6581;DHT22;3324;50.796;7.228;2023-06-22T20:26:59;20.30;99.90
6581;DHT22;3324;50.796;7.228;2023-06-22T20:29:32;20.30;99.90
6581;DHT22;3324;50.796;7.228;2023-06-22T20:32:05;20.10;99.90
6581;DHT22;3324;50.796;7.228;2023-06-22T20:34:44;20.10;99.90
6581;DHT22;3324;50.796;7.228;2023-06-22T20:37:12;20.00;99.90
6581;DHT22;3324;50.796;7.228;2023-06-22T20:39:38;19.90;99.90
6581;DHT22;3324;50.796;7.228;2023-06-22T20:42:05;19.80;99.90
6581;DHT22;3324;50.796;7.228;2023-06-22T20:44:31;19.70;99.90
6581;DHT22;3324;50.796;7.228;2023-06-22T20:46:57;19.70;99.90
6581;DHT22;3324;50.796;7.228;2023-06-22T20:49:22;19.60;99.90
6581;DHT22;3324;50.796;7.228;2023-06-22T20:51:48;19.60;99.90
6581;DHT22;3324;50.796;7.228;2023-06-22T20:54:14;19.40;99.90
6581;DHT22;3324;50.796;7.228;2023-06-22T20:56:43;19.40;99.90
6581;DHT22;3324;50.796;7.228;2023-06-22T20:59:09;19.40;99.90
6581;DHT22;3324;50.796;7.228;2023-06-22T21:01:34;19.40;99.90
6581;DHT22;3324;50.796;7.228;2023-06-22T21:04:00;19.30;99.90
6581;DHT22;3324;50.796;7.228;2023-06-22T21:06:26;19.30;99.90
6581;DHT22;3324;50.796;7.228;2023-06-22T21:08:52;19.30;99.90
6581;DHT22;3324;50.796;7.228;2023-06-22T21:11:18;19.20;99.90
6581;DHT22;3324;50.796;7.228;2023-06-22T21:13:43;19.20;99.90
6581;DHT22;3324;50.796;7.228;2023-06-22T21:16:09;19.20;99.90
6581;DHT22;3324;50.796;7.228;2023-06-22T21:18:35;19.20;99.90
6581;DHT22;3324;50.796;7.228;2023-06-22T21:21:00;19.10;99.90
6581;DHT22;3324;50.796;7.228;2023-06-22T21:23:26;19.10;99.90
6581;DHT22;3324;50.796;7.228;2023-06-22T21:25:51;19.10;99.90
6581;DHT22;3324;50.796;7.228;2023-06-22T21:28:17;19.10;99.90
6581;DHT22;3324;50.796;7.228;2023-06-22T21:30:43;19.20;99.90
6581;DHT22;3324;50.796;7.228;2023-06-22T21:33:09;19.10;99.90
6581;DHT22;3324;50.796;7.228;2023-06-22T21:35:35;19.10;99.90
6581;DHT22;3324;50.796;7.228;2023-06-22T21:38:01;19.10;99.90
6581;DHT22;3324;50.796;7.228;2023-06-22T21:40:27;19.10;99.90
6581;DHT22;3324;50.796;7.228;2023-06-22T21:42:52;19.10;99.90
6581;DHT22;3324;50.796;7.228;2023-06-22T21:45:19;19.10;99.90
6581;DHT22;3324;50.796;7.228;2023-06-22T21:47:44;19.10;99.90
6581;DHT22;3324;50.796;7.228;2023-06-22T21:50:10;19.10;99.90
6581;DHT22;3324;50.796;7.228;2023-06-22T21:52:36;19.10;99.90
6581;DHT22;3324;50.796;7.228;2023-06-22T21:55:01;19.00;99.90
6581;DHT22;3324;50.796;7.228;2023-06-22T21:57:27;19.00;99.90
6581;DHT22;3324;50.796;7.228;2023-06-22T21:59:54;19.00;99.90
6581;DHT22;3324;50.796;7.228;2023-06-22T22:02:20;19.00;99.90
6581;DHT22;3324;50.796;7.228;2023-06-22T22:04:45;19.00;99.90
6581;DHT22;3324;50.796;7.228;2023-06-22T22:07:11;19.00;99.90
6581;DHT22;3324;50.796;7.228;2023-06-22T22:09:36;19.00;99.90
6581;DHT22;3324;50.796;7.228;2023-06-22T22:12:02;19.00;99.90
6581;DHT22;3324;50.796;7.228;2023-06-22T22:14:28;19.00;99.90
6581;DHT22;3324;50.796;7.228;2023-06-22T22:16:53;19.00;99.90
6581;DHT22;3324;50.796;7.228;2023-06-22T22:19:19;19.00;99.90
6581;DHT22;3324;50.796;7.228;2023-06-22T22:21:46;19.00;99.90
6581;DHT22;3324;50.796;7.228;2023-06-22T22:24:12;19.00;99.90
6581;DHT22;3324;50.796;7.228;2023-06-22T22:26:38;19.00;99.90
6581;DHT22;3324;50.796;7.228;2023-06-22T22:29:04;19.00;99.90
6581;DHT22;3324;50.796;7.228;2023-06-22T22:31:30;19.10;99.90
6581;DHT22;3324;50.796;7.228;2023-06-22T22:34:03;19.10;99.90
6581;DHT22;3324;50.796;7.228;2023-06-22T22:36:29;19.10;99.90
6581;DHT22;3324;50.796;7.228;2023-06-22T22:38:55;19.10;99.90
6581;DHT22;3324;50.796;7.228;2023-06-22T22:41:21;19.10;99.90
6581;DHT22;3324;50.796;7.228;2023-06-22T22:43:47;19.00;99.90
6581;DHT22;3324;50.796;7.228;2023-06-22T22:46:13;19.00;99.90
6581;DHT22;3324;50.796;7.228;2023-06-22T22:48:39;19.10;99.90
6581;DHT22;3324;50.796;7.228;2023-06-22T22:51:06;19.10;99.90
6581;DHT22;3324;50.796;7.228;2023-06-22T22:53:34;19.00;99.90
6581;DHT22;3324;50.796;7.228;2023-06-22T22:56:01;18.90;99.90
6581;DHT22;3324;50.796;7.228;2023-06-22T22:58:27;18.90;99.90
6581;DHT22;3324;50.796;7.228;2023-06-22T23:00:53;18.90;99.90
6581;DHT22;3324;50.796;7.228;2023-06-22T23:03:19;19.00;99.90
6581;DHT22;3324;50.796;7.228;2023-06-22T23:05:45;18.90;99.90
6581;DHT22;3324;50.796;7.228;2023-06-22T23:08:10;18.90;99.90
6581;DHT22;3324;50.796;7.228;2023-06-22T23:10:36;18.90;99.90
6581;DHT22;3324;50.796;7.228;2023-06-22T23:13:01;19.00;99.90
6581;DHT22;3324;50.796;7.228;2023-06-22T23:15:27;19.00;99.90
6581;DHT22;3324;50.796;7.228;2023-06-22T23:17:53;18.90;99.90
6581;DHT22;3324;50.796;7.228;2023-06-22T23:20:19;18.90;99.90
6581;DHT22;3324;50.796;7.228;2023-06-22T23:22:45;18.80;99.90
6581;DHT22;3324;50.796;7.228;2023-06-22T23:25:11;18.90;99.90
6581;DHT22;3324;50.796;7.228;2023-06-22T23:27:37;18.90;99.90
6581;DHT22;3324;50.796;7.228;2023-06-22T23:30:04;18.90;99.90
6581;DHT22;3324;50.796;7.228;2023-06-22T23:32:30;18.90;99.90
6581;DHT22;3324;50.796;7.228;2023-06-22T23:34:55;18.90;99.90
6581;DHT22;3324;50.796;7.228;2023-06-22T23:37:21;18.90;99.90
6581;DHT22;3324;50.796;7.228;2023-06-22T23:39:49;19.00;99.90
6581;DHT22;3324;50.796;7.228;2023-06-22T23:42:15;18.90;99.90
6581;DHT22;3324;50.796;7.228;2023-06-22T23:44:40;18.90;99.90
6581;DHT22;3324;50.796;7.228;2023-06-22T23:47:06;18.90;99.90
6581;DHT22;3324;50.796;7.228;2023-06-22T23:49:32;18.90;99.90
6581;DHT22;3324;50.796;7.228;2023-06-22T23:51:57;18.80;99.90
6581;DHT22;3324;50.796;7.228;2023-06-22T23:54:23;18.90;99.90
6581;DHT22;3324;50.796;7.228;2023-06-22T23:56:51;18.80;99.90
6581;DHT22;3324;50.796;7.228;2023-06-22T23:59:18;18.90;99.90
